createdAt,value
2019-05-07T00:01:59.367Z,36.13
2019-05-07T00:04:29.639Z,31.87
2019-05-07T00:07:02.226Z,32.07
2019-05-07T00:09:32.398Z,45.70
2019-05-07T00:12:05.152Z,32.70
2019-05-07T00:14:34.919Z,38.57
2019-05-07T00:17:05.827Z,38.07
2019-05-07T00:19:36.115Z,40.10
2019-05-07T00:22:06.416Z,36.97
2019-05-07T00:24:37.059Z,31.90
2019-05-07T00:27:07.431Z,41.20
2019-05-07T00:29:37.698Z,36.53
2019-05-07T00:32:07.905Z,34.90
2019-05-07T00:34:43.256Z,35.70
2019-05-07T00:37:22.029Z,32.57
2019-05-07T00:40:06.639Z,32.83
2019-05-07T00:42:55.926Z,39.27
2019-05-07T00:45:32.721Z,29.00
2019-05-07T00:48:03.028Z,34.90
2019-05-07T00:50:35.478Z,35.53
2019-05-07T00:53:05.687Z,31.70
2019-05-07T00:55:36.016Z,40.40
2019-05-07T00:58:06.309Z,36.63
2019-05-07T01:00:36.993Z,32.67
2019-05-07T01:03:07.264Z,32.00
2019-05-07T01:05:37.571Z,32.93
2019-05-07T01:08:07.817Z,34.67
2019-05-07T01:10:38.121Z,36.80
2019-05-07T01:13:08.485Z,33.03
2019-05-07T01:15:38.944Z,32.00
2019-05-07T01:18:09.219Z,34.23
2019-05-07T01:20:42.086Z,32.80
2019-05-07T01:23:13.450Z,31.87
2019-05-07T01:25:43.878Z,32.70
2019-05-07T01:28:14.119Z,32.53
2019-05-07T01:30:44.826Z,33.43
2019-05-07T01:33:42.255Z,33.20
2019-05-07T01:36:22.615Z,33.20
2019-05-07T01:38:53.439Z,28.23
2019-05-07T01:41:23.845Z,29.67
2019-05-07T01:43:54.102Z,35.20
2019-05-07T01:46:24.800Z,32.77
2019-05-07T01:48:57.477Z,28.73
2019-05-07T01:51:27.426Z,29.63
2019-05-07T01:53:57.713Z,32.03
2019-05-07T01:56:28.024Z,31.87
2019-05-07T01:58:58.192Z,31.73
2019-05-07T02:01:28.956Z,30.73
2019-05-07T02:04:07.338Z,32.80
2019-05-07T02:06:59.956Z,33.37
2019-05-07T02:09:53.346Z,34.30
2019-05-07T02:12:28.627Z,32.37
2019-05-07T02:14:58.825Z,35.53
2019-05-07T02:17:29.089Z,32.93
2019-05-07T02:19:59.375Z,32.20
2019-05-07T02:22:31.842Z,35.50
2019-05-07T02:25:03.309Z,31.80
2019-05-07T02:27:34.273Z,34.30
2019-05-07T02:30:25.069Z,30.83
2019-05-07T02:32:55.764Z,28.30
2019-05-07T02:35:26.040Z,36.37
2019-05-07T02:38:06.001Z,34.93
2019-05-07T02:41:02.871Z,36.07
2019-05-07T02:43:34.018Z,33.83
2019-05-07T02:46:31.011Z,34.97
2019-05-07T02:49:32.773Z,38.37
2019-05-07T02:52:14.254Z,36.30
2019-05-07T02:55:04.038Z,35.27
2019-05-07T02:57:34.413Z,35.00
2019-05-07T03:00:06.301Z,34.77
2019-05-07T03:02:36.585Z,34.23
2019-05-07T03:05:07.233Z,38.00
2019-05-07T03:07:37.555Z,35.07
2019-05-07T03:10:08.168Z,32.17
2019-05-07T03:12:38.798Z,35.13
2019-05-07T03:15:09.068Z,35.77
2019-05-07T03:17:42.656Z,38.43
2019-05-07T03:20:15.492Z,33.83
2019-05-07T03:22:46.095Z,38.00
2019-05-07T03:25:23.127Z,33.37
2019-05-07T03:27:53.791Z,31.50
2019-05-07T03:30:35.879Z,31.93
2019-05-07T03:33:16.095Z,39.57
2019-05-07T03:35:48.631Z,32.23
2019-05-07T03:38:19.287Z,36.30
2019-05-07T03:40:52.957Z,35.07
2019-05-07T03:43:22.821Z,35.57
2019-05-07T03:46:14.067Z,35.87
2019-05-07T03:48:46.480Z,40.17
2019-05-07T03:51:17.370Z,34.67
2019-05-07T03:53:47.656Z,38.57
2019-05-07T03:56:17.969Z,31.60
2019-05-07T03:58:48.295Z,31.87
2019-05-07T04:01:18.621Z,31.07
2019-05-07T04:03:49.420Z,28.97
2019-05-07T04:06:19.823Z,32.00
2019-05-07T04:08:52.979Z,33.37
2019-05-07T04:11:23.016Z,32.30
2019-05-07T04:17:26.997Z,30.93
2019-05-07T04:19:56.558Z,34.53
2019-05-07T04:22:29.110Z,31.17
2019-05-07T04:25:13.126Z,32.13
2019-05-07T04:28:03.736Z,31.40
2019-05-07T04:30:34.681Z,27.77
2019-05-07T04:33:07.056Z,32.43
2019-05-07T04:35:43.404Z,31.93
2019-05-07T04:38:14.074Z,29.33
2019-05-07T04:40:44.326Z,30.03
2019-05-07T04:43:14.681Z,32.93
2019-05-07T04:45:44.957Z,32.13
2019-05-07T04:48:15.588Z,33.50
2019-05-07T04:50:48.144Z,29.27
2019-05-07T04:53:18.733Z,28.13
2019-05-07T04:55:48.993Z,34.17
2019-05-07T04:58:19.309Z,34.73
2019-05-07T05:00:49.585Z,30.73
2019-05-07T05:03:23.794Z,42.50
2019-05-07T05:05:54.265Z,41.07
2019-05-07T05:08:24.595Z,36.63
2019-05-07T05:10:54.915Z,31.83
2019-05-07T05:13:25.857Z,31.27
2019-05-07T05:15:56.476Z,38.43
2019-05-07T05:18:27.513Z,35.70
2019-05-07T05:21:14.516Z,38.37
2019-05-07T05:24:12.806Z,39.97
2019-05-07T05:26:43.351Z,44.17
2019-05-07T05:29:14.765Z,40.73
2019-05-07T05:31:45.331Z,41.13
2019-05-07T05:34:15.643Z,41.30
2019-05-07T05:36:46.045Z,39.43
2019-05-07T05:39:16.348Z,37.33
2019-05-07T05:41:48.741Z,49.33
2019-05-07T05:44:38.042Z,45.70
2019-05-07T05:47:08.437Z,42.30
2019-05-07T05:49:38.866Z,40.93
2019-05-07T05:52:22.586Z,35.50
2019-05-07T05:55:02.560Z,43.67
2019-05-07T05:57:43.883Z,34.73
2019-05-07T06:00:42.679Z,35.50
2019-05-07T06:03:38.660Z,39.30
2019-05-07T06:06:16.521Z,37.30
2019-05-07T06:09:05.759Z,42.60
2019-05-07T06:11:53.969Z,42.67
2019-05-07T06:14:30.043Z,37.07
2019-05-07T06:17:15.243Z,39.73
2019-05-07T06:19:51.881Z,44.77
2019-05-07T06:22:33.112Z,43.33
2019-05-07T06:25:15.016Z,40.17
2019-05-07T06:27:45.788Z,38.80
2019-05-07T06:30:17.054Z,40.67
2019-05-07T06:32:47.491Z,39.97
2019-05-07T06:35:20.079Z,41.37
2019-05-07T06:37:52.181Z,48.90
2019-05-07T06:40:46.514Z,42.37
2019-05-07T06:43:32.498Z,38.33
2019-05-07T06:46:03.717Z,38.40
2019-05-07T06:48:41.785Z,40.77
2019-05-07T06:51:06.094Z,34.80
2019-05-07T06:53:36.394Z,33.73
2019-05-07T06:56:06.724Z,44.33
2019-05-07T06:59:02.281Z,32.00
2019-05-07T07:01:44.334Z,32.70
2019-05-07T07:04:22.468Z,33.27
2019-05-07T07:07:27.221Z,39.23
2019-05-07T07:10:13.672Z,48.93
2019-05-07T07:12:44.312Z,45.17
2019-05-07T07:15:14.710Z,89.73
2019-05-07T07:17:48.469Z,43.70
2019-05-07T07:20:18.761Z,36.37
2019-05-07T07:22:52.016Z,32.00
2019-05-07T07:25:22.945Z,28.23
2019-05-07T07:27:53.530Z,27.77
2019-05-07T07:30:46.275Z,27.33
2019-05-07T07:33:17.266Z,25.20
2019-05-07T07:35:47.571Z,28.80
2019-05-07T07:38:34.586Z,28.60
2019-05-07T07:41:27.072Z,31.77
2019-05-07T07:43:57.491Z,31.77
2019-05-07T07:46:28.070Z,31.13
2019-05-07T07:49:07.854Z,32.90
2019-05-07T07:51:38.793Z,32.83
2019-05-07T07:54:02.953Z,32.67
2019-05-07T07:56:52.880Z,31.03
2019-05-07T07:59:35.293Z,26.63
2019-05-07T08:02:13.827Z,24.80
2019-05-07T08:04:44.174Z,25.73
2019-05-07T08:07:14.449Z,23.03
2019-05-07T08:09:44.710Z,25.13
2019-05-07T08:12:16.491Z,23.37
2019-05-07T08:14:46.795Z,30.13
2019-05-07T08:17:17.520Z,21.47
2019-05-07T08:19:47.785Z,21.27
2019-05-07T08:22:18.064Z,28.77
2019-05-07T08:24:48.631Z,17.13
2019-05-07T08:27:18.914Z,28.70
2019-05-07T08:29:49.478Z,19.37
2019-05-07T08:32:29.983Z,20.80
2019-05-07T08:35:05.917Z,16.17
2019-05-07T08:37:36.627Z,22.57
2019-05-07T08:40:07.992Z,22.13
2019-05-07T08:42:38.298Z,18.70
2019-05-07T08:45:26.349Z,27.47
2019-05-07T08:47:58.806Z,27.07
2019-05-07T08:50:29.244Z,27.60
2019-05-07T08:52:59.530Z,27.53
2019-05-07T08:55:31.794Z,30.80
2019-05-07T08:58:02.831Z,25.10
2019-05-07T09:00:33.158Z,30.83
2019-05-07T09:03:03.454Z,26.53
2019-05-07T09:05:34.096Z,28.27
2019-05-07T09:08:04.465Z,29.23
2019-05-07T09:10:34.825Z,27.40
2019-05-07T09:13:05.103Z,31.30
2019-05-07T09:15:35.401Z,27.97
2019-05-07T09:18:05.985Z,32.60
2019-05-07T09:20:36.872Z,26.97
2019-05-07T09:23:14.765Z,26.80
2019-05-07T09:25:48.708Z,32.90
2019-05-07T09:28:21.806Z,29.53
2019-05-07T09:31:01.669Z,30.03
2019-05-07T09:33:44.296Z,19.33
2019-05-07T09:36:22.768Z,26.60
2019-05-07T09:38:59.306Z,19.57
2019-05-07T09:41:29.366Z,26.67
2019-05-07T09:44:00.004Z,30.67
2019-05-07T09:46:32.345Z,32.77
2019-05-07T09:49:03.116Z,24.23
2019-05-07T09:51:34.545Z,23.73
2019-05-07T09:54:05.210Z,24.67
2019-05-07T09:56:35.643Z,23.20
2019-05-07T09:59:05.964Z,23.53
2019-05-07T10:01:36.317Z,21.63
2019-05-07T10:04:06.546Z,23.60
2019-05-07T10:06:36.982Z,24.37
2019-05-07T10:09:07.936Z,25.27
2019-05-07T10:11:47.693Z,30.03
2019-05-07T10:14:18.417Z,29.13
2019-05-07T10:17:07.475Z,28.80
2019-05-07T10:19:37.726Z,84.17
2019-05-07T10:22:08.204Z,33.80
2019-05-07T10:24:38.678Z,32.90
2019-05-07T10:27:09.115Z,37.13
2019-05-07T10:29:42.614Z,46.87
2019-05-07T10:32:12.933Z,30.10
2019-05-07T10:34:43.362Z,25.60
2019-05-07T10:37:13.972Z,28.17
2019-05-07T10:39:44.324Z,27.47
2019-05-07T10:42:14.681Z,23.70
2019-05-07T10:44:52.487Z,26.77
2019-05-07T10:47:34.598Z,25.93
2019-05-07T10:50:39.022Z,21.73
2019-05-07T10:53:05.161Z,20.00
2019-05-07T10:55:35.666Z,22.80
2019-05-07T10:58:05.914Z,21.53
2019-05-07T11:00:36.216Z,18.40
2019-05-07T11:03:06.639Z,19.87
2019-05-07T11:05:36.941Z,20.37
2019-05-07T11:08:07.226Z,18.53
2019-05-07T11:10:37.828Z,13.83
2019-05-07T11:13:08.056Z,16.17
2019-05-07T11:15:38.939Z,14.40
2019-05-07T11:18:34.398Z,18.37
2019-05-07T11:21:05.098Z,12.63
2019-05-07T11:23:35.420Z,13.67
2019-05-07T11:26:05.707Z,19.70
2019-05-07T11:28:36.034Z,15.37
2019-05-07T11:31:06.343Z,12.97
2019-05-07T11:33:36.827Z,11.80
2019-05-07T11:36:07.099Z,11.30
2019-05-07T11:38:37.389Z,10.83
2019-05-07T11:41:07.747Z,10.80
2019-05-07T11:44:06.206Z,15.23
2019-05-07T11:46:54.421Z,8.20
2019-05-07T11:49:52.732Z,12.07
2019-05-07T11:52:35.234Z,11.30
2019-05-07T11:55:03.513Z,7.97
2019-05-07T11:57:34.106Z,11.93
2019-05-07T12:00:05.377Z,11.77
2019-05-07T12:02:35.673Z,13.53
2019-05-07T12:05:07.147Z,11.20
2019-05-07T12:07:37.517Z,9.63
2019-05-07T12:10:07.799Z,9.40
2019-05-07T12:12:40.549Z,7.90
2019-05-07T12:15:12.488Z,14.33
2019-05-07T12:17:42.968Z,11.80
2019-05-07T12:20:13.883Z,14.80
2019-05-07T12:22:47.682Z,11.90
2019-05-07T12:25:19.078Z,12.23
2019-05-07T12:27:51.810Z,13.03
2019-05-07T12:30:42.683Z,11.80
2019-05-07T12:33:38.294Z,12.87
2019-05-07T12:36:09.714Z,13.20
2019-05-07T12:38:41.721Z,14.07
2019-05-07T12:41:33.151Z,18.53
2019-05-07T12:44:06.420Z,17.40
2019-05-07T12:46:37.409Z,13.37
2019-05-07T12:49:07.836Z,14.40
2019-05-07T12:52:02.155Z,14.13
2019-05-07T12:54:49.250Z,14.87
2019-05-07T12:57:21.852Z,13.10
2019-05-07T12:59:52.972Z,11.67
2019-05-07T13:02:44.106Z,13.53
2019-05-07T13:05:13.001Z,13.43
2019-05-07T13:07:53.754Z,14.03
2019-05-07T13:10:24.057Z,13.90
2019-05-07T13:12:54.317Z,15.60
2019-05-07T13:15:27.806Z,16.03
2019-05-07T13:17:56.579Z,18.40
2019-05-07T13:20:26.856Z,14.30
2019-05-07T13:22:57.144Z,11.03
2019-05-07T13:25:28.728Z,12.50
2019-05-07T13:27:59.066Z,12.73
2019-05-07T13:30:29.386Z,13.07
2019-05-07T13:33:02.005Z,13.43
2019-05-07T13:35:32.974Z,10.13
2019-05-07T13:38:23.816Z,10.87
2019-05-07T13:41:19.099Z,11.83
2019-05-07T13:44:12.388Z,10.70
2019-05-07T13:46:44.982Z,11.47
2019-05-07T13:49:15.664Z,8.33
2019-05-07T13:51:46.538Z,12.40
2019-05-07T13:54:16.955Z,9.03
2019-05-07T13:56:47.453Z,8.03
2019-05-07T13:59:17.883Z,8.37
2019-05-07T14:01:58.858Z,18.87
2019-05-07T14:04:30.131Z,7.93
2019-05-07T14:07:01.940Z,9.40
2019-05-07T14:09:32.740Z,9.17
2019-05-07T14:12:03.319Z,10.67
2019-05-07T14:14:34.477Z,9.20
2019-05-07T14:17:05.418Z,9.33
2019-05-07T14:19:36.235Z,11.07
2019-05-07T14:22:15.237Z,9.87
2019-05-07T14:24:38.812Z,9.10
2019-05-07T14:27:09.251Z,9.00
2019-05-07T14:29:39.793Z,10.67
2019-05-07T14:32:31.921Z,10.43
2019-05-07T14:35:27.182Z,14.07
2019-05-07T14:38:13.878Z,13.93
2019-05-07T14:40:44.785Z,13.80
2019-05-07T14:43:21.960Z,15.77
2019-05-07T14:45:52.480Z,12.87
2019-05-07T14:48:23.223Z,13.37
2019-05-07T14:50:53.708Z,13.33
2019-05-07T14:53:24.381Z,16.77
2019-05-07T14:55:55.130Z,21.93
2019-05-07T14:58:26.010Z,9.83
2019-05-07T15:00:57.402Z,10.60
2019-05-07T15:03:27.814Z,11.73
2019-05-07T15:05:59.012Z,17.80
2019-05-07T15:08:29.410Z,12.25
2019-05-07T15:10:59.824Z,9.80
2019-05-07T15:13:32.299Z,10.37
2019-05-07T15:16:03.178Z,10.27
2019-05-07T15:18:52.750Z,9.85
2019-05-07T15:21:22.922Z,17.97
2019-05-07T15:23:55.489Z,10.53
2019-05-07T15:26:27.302Z,12.67
2019-05-07T15:29:17.451Z,10.07
2019-05-07T15:32:09.823Z,11.10
2019-05-07T15:34:42.109Z,11.37
2019-05-07T15:37:12.940Z,9.87
2019-05-07T15:39:43.297Z,11.40
2019-05-07T15:42:14.137Z,13.53
2019-05-07T15:44:44.651Z,9.93
2019-05-07T15:47:22.297Z,12.57
2019-05-07T15:49:52.618Z,11.63
2019-05-07T15:52:41.374Z,10.03
2019-05-07T15:55:11.892Z,6.77
2019-05-07T15:57:42.802Z,9.67
2019-05-07T16:00:15.861Z,9.00
2019-05-07T16:02:48.604Z,9.40
2019-05-07T16:05:19.227Z,8.73
2019-05-07T16:07:50.120Z,10.50
2019-05-07T16:10:23.027Z,9.73
2019-05-07T16:12:53.260Z,8.40
2019-05-07T16:15:24.005Z,10.00
2019-05-07T16:17:59.146Z,7.53
2019-05-07T16:20:29.468Z,10.47
2019-05-07T16:23:13.929Z,10.10
2019-05-07T16:25:34.682Z,9.80
2019-05-07T16:28:06.774Z,9.40
2019-05-07T16:30:37.070Z,10.83
2019-05-07T16:33:07.384Z,10.63
2019-05-07T16:35:37.672Z,11.93
2019-05-07T16:38:25.356Z,7.07
2019-05-07T16:40:56.007Z,9.03
2019-05-07T16:43:26.316Z,7.10
2019-05-07T16:45:56.914Z,11.10
2019-05-07T16:48:27.223Z,10.07
2019-05-07T16:50:57.881Z,9.27
2019-05-07T16:53:30.292Z,6.70
2019-05-07T16:56:00.134Z,10.33
2019-05-07T16:58:38.147Z,8.20
2019-05-07T17:01:09.812Z,8.13
2019-05-07T17:03:45.804Z,9.13
2019-05-07T17:06:16.121Z,9.73
2019-05-07T17:09:10.198Z,10.10
2019-05-07T17:11:40.514Z,9.83
2019-05-07T17:14:12.729Z,11.40
2019-05-07T17:16:42.820Z,10.50
2019-05-07T17:19:14.613Z,7.77
2019-05-07T17:21:45.983Z,7.27
2019-05-07T17:24:16.305Z,8.60
2019-05-07T17:26:46.599Z,13.13
2019-05-07T17:29:17.511Z,7.13
2019-05-07T17:31:47.829Z,7.73
2019-05-07T17:34:18.163Z,8.37
2019-05-07T17:36:48.810Z,8.20
2019-05-07T17:39:19.205Z,9.70
2019-05-07T17:41:51.751Z,9.17
2019-05-07T17:44:23.210Z,10.33
2019-05-07T17:46:53.356Z,11.43
2019-05-07T17:49:24.366Z,9.23
2019-05-07T17:54:36.400Z,6.80
2019-05-07T17:57:06.647Z,8.63
2019-05-07T17:59:37.489Z,7.70
2019-05-07T18:02:42.214Z,8.80
2019-05-07T18:05:12.914Z,11.00
2019-05-07T18:07:43.307Z,8.50
2019-05-07T18:10:13.730Z,11.83
2019-05-07T18:12:44.103Z,10.40
2019-05-07T18:15:14.459Z,13.57
2019-05-07T18:18:04.391Z,11.23
2019-05-07T18:20:35.075Z,10.13
2019-05-07T18:23:07.199Z,11.43
2019-05-07T18:25:37.461Z,12.13
2019-05-07T18:28:07.769Z,10.67
2019-05-07T18:30:38.096Z,11.83
2019-05-07T18:33:25.400Z,14.67
2019-05-07T18:35:55.679Z,11.67
2019-05-07T18:38:26.347Z,15.43
2019-05-07T18:40:56.662Z,10.87
2019-05-07T18:43:27.250Z,10.87
2019-05-07T18:45:58.086Z,12.07
2019-05-07T18:48:28.595Z,11.40
2019-05-07T18:51:02.728Z,11.13
2019-05-07T18:53:33.045Z,13.60
2019-05-07T18:56:03.658Z,10.17
2019-05-07T18:58:34.960Z,9.07
2019-05-07T19:01:09.715Z,12.67
2019-05-07T19:03:41.970Z,13.63
2019-05-07T19:06:13.597Z,12.97
2019-05-07T19:08:44.044Z,13.13
2019-05-07T19:11:14.417Z,12.20
2019-05-07T19:13:44.692Z,10.43
2019-05-07T19:16:15.561Z,13.17
2019-05-07T19:18:46.118Z,14.60
2019-05-07T19:21:16.452Z,15.20
2019-05-07T19:23:46.743Z,12.47
2019-05-07T19:26:17.084Z,12.07
2019-05-07T19:28:47.412Z,9.50
2019-05-07T19:31:17.673Z,16.60
2019-05-07T19:33:47.998Z,10.93
2019-05-07T19:36:18.318Z,8.87
2019-05-07T19:38:48.672Z,14.37
2019-05-07T19:41:19.301Z,8.57
2019-05-07T19:43:52.776Z,17.40
2019-05-07T19:46:23.263Z,10.03
2019-05-07T19:48:53.523Z,16.03
2019-05-07T19:51:23.704Z,11.97
2019-05-07T19:53:54.197Z,11.57
2019-05-07T19:56:37.139Z,10.87
2019-05-07T19:59:07.457Z,12.03
2019-05-07T20:01:45.331Z,10.20
2019-05-07T20:04:15.611Z,10.93
2019-05-07T20:06:45.895Z,12.50
2019-05-07T20:09:18.060Z,17.33
2019-05-07T20:11:49.292Z,14.20
2019-05-07T20:14:19.514Z,14.47
2019-05-07T20:16:49.708Z,14.40
2019-05-07T20:19:19.862Z,14.93
2019-05-07T20:21:52.250Z,15.37
2019-05-07T20:24:22.092Z,12.53
2019-05-07T20:26:53.341Z,15.50
2019-05-07T20:29:24.098Z,15.57
2019-05-07T20:31:55.169Z,11.50
2019-05-07T20:34:25.403Z,24.30
2019-05-07T20:36:55.583Z,13.83
2019-05-07T20:39:26.059Z,15.70
2019-05-07T20:41:56.699Z,13.80
2019-05-07T20:44:27.279Z,13.33
2019-05-07T20:46:57.491Z,17.27
2019-05-07T20:49:27.927Z,15.07
2019-05-07T20:51:58.149Z,16.37
2019-05-07T20:54:35.664Z,20.20
2019-05-07T20:57:09.302Z,17.00
2019-05-07T20:59:39.392Z,14.50
2019-05-07T21:02:11.743Z,14.97
2019-05-07T21:04:42.482Z,14.43
2019-05-07T21:07:12.897Z,15.67
2019-05-07T21:09:43.161Z,19.87
2019-05-07T21:12:13.675Z,17.00
2019-05-07T21:14:43.916Z,14.53
2019-05-07T21:17:14.177Z,17.83
2019-05-07T21:19:45.372Z,15.83
2019-05-07T21:22:15.632Z,18.63
2019-05-07T21:24:46.904Z,19.23
2019-05-07T21:27:18.573Z,21.13
2019-05-07T21:29:49.617Z,16.77
2019-05-07T21:32:20.044Z,17.63
2019-05-07T21:34:52.666Z,16.03
2019-05-07T21:37:23.065Z,19.53
2019-05-07T21:39:53.363Z,19.73
2019-05-07T21:42:23.902Z,16.00
2019-05-07T21:44:54.043Z,22.10
2019-05-07T21:47:24.283Z,18.47
2019-05-07T21:50:03.876Z,25.33
2019-05-07T21:52:39.358Z,20.77
2019-05-07T21:55:36.354Z,17.23
2019-05-07T21:58:27.035Z,20.07
2019-05-07T22:01:06.984Z,17.17
2019-05-07T22:03:39.096Z,21.10
2019-05-07T22:06:12.127Z,17.87
2019-05-07T22:08:41.543Z,19.07
2019-05-07T22:11:12.497Z,18.60
2019-05-07T22:13:43.527Z,17.20
2019-05-07T22:16:13.853Z,20.23
2019-05-07T22:18:44.055Z,18.70
2019-05-07T22:21:14.189Z,21.00
2019-05-07T22:23:45.617Z,17.57
2019-05-07T22:26:22.869Z,14.20
2019-05-07T22:28:53.879Z,13.50
2019-05-07T22:31:43.891Z,18.43
2019-05-07T22:34:38.002Z,15.63
2019-05-07T22:37:09.762Z,16.63
2019-05-07T22:39:44.275Z,17.13
2019-05-07T22:42:18.586Z,19.73
2019-05-07T22:44:49.227Z,19.60
2019-05-07T22:47:22.170Z,21.73
2019-05-07T22:49:53.603Z,13.97
2019-05-07T22:52:24.160Z,18.77
2019-05-07T22:54:54.497Z,20.53
2019-05-07T22:57:48.794Z,15.30
2019-05-07T23:00:43.955Z,20.77
2019-05-07T23:03:14.283Z,17.67
2019-05-07T23:05:45.110Z,18.47
2019-05-07T23:08:15.391Z,16.97
2019-05-07T23:10:45.827Z,16.50
2019-05-07T23:13:16.104Z,16.87
2019-05-07T23:15:46.514Z,15.37
2019-05-07T23:18:16.698Z,18.77
2019-05-07T23:20:47.436Z,14.13
2019-05-07T23:23:17.716Z,17.43
2019-05-07T23:25:48.346Z,27.67
2019-05-07T23:28:18.935Z,18.13
2019-05-07T23:30:51.699Z,18.37
2019-05-07T23:33:22.648Z,14.83
2019-05-07T23:35:53.178Z,18.17
2019-05-07T23:38:23.434Z,13.63
2019-05-07T23:41:22.331Z,15.70
2019-05-07T23:44:14.345Z,15.03
2019-05-07T23:46:45.288Z,15.10
2019-05-07T23:49:19.504Z,21.40
2019-05-07T23:51:52.785Z,16.90
2019-05-07T23:54:23.221Z,15.37
2019-05-07T23:57:05.850Z,15.00
2019-05-07T23:59:27.680Z,20.50
